Time;durP1;ratioP1;P1;durP2;ratioP2;P2;SDS_P1;SDS_P2;PMS_P1;PMS_P2;Temp;Humidity;BMP_temperature;BMP_pressure;BME280_temperature;BME280_humidity;BME280_pressure;Samples;Min_cycle;Max_cycle;Signal;HPM_P1;HPM_P2
2021/03/08 00:00:24;;;;;;;4.78;2.40;;;;;;;;;;5022929;28;20041;-72
2021/03/08 00:02:50;;;;;;;4.22;2.47;;;;;;;;;;4990222;28;20473;-73
2021/03/08 00:05:16;;;;;;;3.75;2.60;;;;;;;;;;4974230;28;20042;-73
2021/03/08 00:07:41;;;;;;;3.25;2.08;;;;;;;;;;4988746;28;20404;-72
2021/03/08 00:10:08;;;;;;;3.35;2.58;;;;;;;;;;5006496;28;20783;-73
2021/03/08 00:12:33;;;;;;;4.38;2.58;;;;;;;;;;4973918;28;20030;-73
2021/03/08 00:14:59;;;;;;;4.03;2.40;;;;;;;;;;5021779;28;20519;-72
2021/03/08 00:17:25;;;;;;;4.72;2.70;;;;;;;;;;5022710;28;20034;-72
2021/03/08 00:19:50;;;;;;;4.43;2.47;;;;;;;;;;4989950;28;20073;-72
2021/03/08 00:22:16;;;;;;;3.60;2.25;;;;;;;;;;5022370;28;20412;-73
2021/03/08 00:24:41;;;;;;;2.88;2.30;;;;;;;;;;5006482;28;20061;-72
2021/03/08 00:27:07;;;;;;;4.00;2.25;;;;;;;;;;4989107;28;20515;-72
2021/03/08 00:29:33;;;;;;;3.55;2.60;;;;;;;;;;5022614;28;20483;-72
2021/03/08 00:32:00;;;;;;;4.88;2.70;;;;;;;;;;4989160;28;20022;-72
2021/03/08 00:34:25;;;;;;;2.78;2.10;;;;;;;;;;4989559;28;20030;-72
2021/03/08 00:36:51;;;;;;;3.67;2.55;;;;;;;;;;4989989;28;20038;-72
2021/03/08 00:39:20;;;;;;;3.95;2.13;;;;;;;;;;5006321;28;20041;-72
2021/03/08 00:41:45;;;;;;;4.03;2.53;;;;;;;;;;5022372;28;20034;-72
2021/03/08 00:44:11;;;;;;;4.32;2.40;;;;;;;;;;5006069;28;20124;-72
2021/03/08 00:46:37;;;;;;;3.78;2.25;;;;;;;;;;5006299;28;20030;-73
2021/03/08 00:49:05;;;;;;;3.42;2.05;;;;;;;;;;5006410;28;20399;-72
2021/03/08 00:51:30;;;;;;;3.80;2.30;;;;;;;;;;5021877;28;20038;-72
2021/03/08 00:53:56;;;;;;;3.85;2.30;;;;;;;;;;5021994;28;20046;-73
2021/03/08 00:56:21;;;;;;;3.70;2.13;;;;;;;;;;5006064;28;20460;-72
2021/03/08 00:58:47;;;;;;;3.47;1.98;;;;;;;;;;5023179;28;20049;-72
2021/03/08 01:01:12;;;;;;;3.13;2.00;;;;;;;;;;5005489;28;20516;-72
2021/03/08 01:03:38;;;;;;;3.40;1.90;;;;;;;;;;5006670;28;20428;-72
2021/03/08 01:06:03;;;;;;;3.55;2.35;;;;;;;;;;5006419;28;20043;-73
2021/03/08 01:08:29;;;;;;;3.33;2.20;;;;;;;;;;5007094;28;20408;-73
2021/03/08 01:10:54;;;;;;;6.22;2.75;;;;;;;;;;5010256;28;20030;-72
2021/03/08 01:13:20;;;;;;;4.30;3.28;;;;;;;;;;4993494;28;20074;-73
2021/03/08 01:15:46;;;;;;;5.20;3.65;;;;;;;;;;5027039;28;20042;-72
2021/03/08 01:18:15;;;;;;;6.50;4.68;;;;;;;;;;4978675;28;20048;-73
2021/03/08 01:20:41;;;;;;;5.13;3.25;;;;;;;;;;5027389;28;20039;-73
2021/03/08 01:23:06;;;;;;;6.10;3.92;;;;;;;;;;5011031;28;20512;-73
2021/03/08 01:25:35;;;;;;;4.72;3.50;;;;;;;;;;5023428;28;20519;-72
2021/03/08 01:28:01;;;;;;;5.35;3.95;;;;;;;;;;5022926;28;20038;-72
2021/03/08 01:30:28;;;;;;;5.47;3.60;;;;;;;;;;4991208;28;20109;-73
2021/03/08 01:32:54;;;;;;;5.72;4.18;;;;;;;;;;4978294;28;20041;-72
2021/03/08 01:35:22;;;;;;;4.78;3.53;;;;;;;;;;5027284;28;20068;-72
2021/03/08 01:37:48;;;;;;;4.70;3.65;;;;;;;;;;5010851;28;20049;-72
2021/03/08 01:40:14;;;;;;;8.15;3.60;;;;;;;;;;4978718;28;20457;-72
2021/03/08 01:42:40;;;;;;;5.53;3.80;;;;;;;;;;4974970;28;20178;-72
2021/03/08 01:45:11;;;;;;;4.25;3.28;;;;;;;;;;4990917;28;20114;-73
2021/03/08 01:47:36;;;;;;;4.63;3.20;;;;;;;;;;4975186;28;20038;-72
2021/03/08 01:50:04;;;;;;;4.95;3.40;;;;;;;;;;4974235;28;20498;-73
2021/03/08 01:52:29;;;;;;;4.70;3.20;;;;;;;;;;4990930;28;20070;-73
2021/03/08 01:54:55;;;;;;;4.25;2.72;;;;;;;;;;4991610;28;20037;-73
2021/03/08 01:57:20;;;;;;;4.72;3.25;;;;;;;;;;5010268;28;20046;-73
2021/03/08 01:59:46;;;;;;;4.53;3.00;;;;;;;;;;4994248;28;20386;-73
2021/03/08 02:02:11;;;;;;;3.47;3.00;;;;;;;;;;5026823;28;20042;-73
2021/03/08 02:04:37;;;;;;;5.00;3.25;;;;;;;;;;5023379;28;20046;-72
2021/03/08 02:07:02;;;;;;;4.28;3.38;;;;;;;;;;5022999;28;20070;-73
2021/03/08 02:09:28;;;;;;;4.55;3.35;;;;;;;;;;5022757;28;20055;-73
2021/03/08 02:12:01;;;;;;;4.63;3.10;;;;;;;;;;5023680;28;20118;-73
2021/03/08 02:15:08;;;;;;;5.05;3.33;;;;;;;;;;5022681;28;20504;-72
2021/03/08 02:18:19;;;;;;;6.30;3.17;;;;;;;;;;4985163;28;20058;-73
2021/03/08 02:21:08;;;;;;;4.28;2.97;;;;;;;;;;5013627;28;20048;-73
2021/03/08 02:24:02;;;;;;;4.10;3.13;;;;;;;;;;5004642;28;20046;-72
2021/03/08 02:26:32;;;;;;;4.63;3.00;;;;;;;;;;4990657;28;20053;-73
2021/03/08 02:29:06;;;;;;;4.70;3.20;;;;;;;;;;5013251;28;20089;-73
2021/03/08 02:31:31;;;;;;;5.50;3.42;;;;;;;;;;5023471;28;20130;-73
2021/03/08 02:34:03;;;;;;;4.88;2.97;;;;;;;;;;4974015;28;20047;-73
2021/03/08 02:36:32;;;;;;;4.20;3.25;;;;;;;;;;5006343;28;20102;-72
2021/03/08 02:39:18;;;;;;;4.32;2.80;;;;;;;;;;4989778;28;20054;-73
2021/03/08 02:41:45;;;;;;;3.60;2.90;;;;;;;;;;4974248;28;20070;-72
2021/03/08 02:44:12;;;;;;;4.55;3.05;;;;;;;;;;4989756;28;20038;-73
2021/03/08 02:46:39;;;;;;;3.88;2.63;;;;;;;;;;4990016;28;20505;-73
2021/03/08 02:49:07;;;;;;;4.72;2.97;;;;;;;;;;4991945;28;20531;-72
2021/03/08 02:51:34;;;;;;;5.40;3.55;;;;;;;;;;5011971;28;20575;-72
2021/03/08 02:53:59;;;;;;;3.60;2.60;;;;;;;;;;5022758;28;20131;-73
2021/03/08 02:56:31;;;;;;;4.93;3.22;;;;;;;;;;5022357;28;20117;-73
2021/03/08 02:58:57;;;;;;;4.00;3.00;;;;;;;;;;5022617;28;20085;-73
2021/03/08 03:01:22;;;;;;;4.30;2.45;;;;;;;;;;4989885;28;20282;-72
2021/03/08 03:03:55;;;;;;;4.53;3.28;;;;;;;;;;5006404;28;20047;-73
2021/03/08 03:06:21;;;;;;;4.30;3.35;;;;;;;;;;5025230;28;20077;-72
2021/03/08 03:08:50;;;;;;;5.05;3.47;;;;;;;;;;4992851;28;20062;-72
2021/03/08 03:11:15;;;;;;;3.97;3.08;;;;;;;;;;5008773;28;20042;-73
2021/03/08 03:13:43;;;;;;;4.50;3.28;;;;;;;;;;5022768;28;20405;-73
2021/03/08 03:16:08;;;;;;;4.18;2.92;;;;;;;;;;5009240;28;20046;-73
2021/03/08 03:18:34;;;;;;;4.05;2.55;;;;;;;;;;5003129;28;20523;-73
2021/03/08 03:21:00;;;;;;;4.63;3.30;;;;;;;;;;4957002;28;20509;-72
2021/03/08 03:23:26;;;;;;;4.28;3.30;;;;;;;;;;4991817;28;20043;-72
2021/03/08 03:25:52;;;;;;;3.97;3.03;;;;;;;;;;5008767;28;20646;-72
2021/03/08 03:28:17;;;;;;;5.05;3.78;;;;;;;;;;5008868;28;20077;-72
2021/03/08 03:30:43;;;;;;;3.95;3.25;;;;;;;;;;4995194;28;20417;-72
2021/03/08 03:33:08;;;;;;;4.50;3.40;;;;;;;;;;5004376;28;20042;-73
2021/03/08 03:35:34;;;;;;;3.80;3.00;;;;;;;;;;4972810;28;20062;-73
2021/03/08 03:37:59;;;;;;;4.40;2.85;;;;;;;;;;4989041;28;20027;-73
2021/03/08 03:40:24;;;;;;;4.22;3.28;;;;;;;;;;5016408;28;20061;-72
2021/03/08 03:42:50;;;;;;;4.35;3.53;;;;;;;;;;4990815;28;20408;-73
2021/03/08 03:45:17;;;;;;;5.40;3.80;;;;;;;;;;4992153;28;20406;-73
2021/03/08 03:47:42;;;;;;;4.57;3.55;;;;;;;;;;5024956;28;20034;-73
2021/03/08 03:50:09;;;;;;;4.22;3.58;;;;;;;;;;4991549;28;20049;-73
2021/03/08 03:52:35;;;;;;;4.93;3.42;;;;;;;;;;5008167;28;20061;-73
2021/03/08 03:55:01;;;;;;;4.55;3.28;;;;;;;;;;4991798;28;20053;-72
2021/03/08 03:57:31;;;;;;;5.97;3.63;;;;;;;;;;5006774;28;20452;-73
2021/03/08 03:59:57;;;;;;;4.93;3.10;;;;;;;;;;4991528;28;20382;-73
2021/03/08 04:02:29;;;;;;;3.83;3.17;;;;;;;;;;5008250;28;20048;-73
2021/03/08 04:04:59;;;;;;;4.85;3.53;;;;;;;;;;5008433;28;20034;-73
2021/03/08 04:07:25;;;;;;;4.30;3.58;;;;;;;;;;5023573;28;20038;-72
2021/03/08 04:09:51;;;;;;;5.20;3.90;;;;;;;;;;4996904;28;20057;-72
2021/03/08 04:12:19;;;;;;;4.50;3.58;;;;;;;;;;4991637;28;20405;-73
2021/03/08 04:14:47;;;;;;;5.18;3.97;;;;;;;;;;4988737;28;20045;-73
2021/03/08 04:17:12;;;;;;;4.28;3.42;;;;;;;;;;4976747;28;20046;-73
2021/03/08 04:19:37;;;;;;;6.13;4.25;;;;;;;;;;4994506;28;20044;-73
2021/03/08 04:22:04;;;;;;;5.20;3.90;;;;;;;;;;4989456;28;20066;-73
2021/03/08 04:24:30;;;;;;;4.45;4.00;;;;;;;;;;5000759;28;20038;-72
2021/03/08 04:26:56;;;;;;;4.93;3.95;;;;;;;;;;4971874;28;20042;-72
2021/03/08 04:29:22;;;;;;;4.82;3.35;;;;;;;;;;4971973;28;20030;-72
2021/03/08 04:31:47;;;;;;;4.80;3.47;;;;;;;;;;4971943;28;20061;-73
2021/03/08 04:34:12;;;;;;;5.75;4.43;;;;;;;;;;4972284;28;20401;-73
2021/03/08 04:36:38;;;;;;;5.78;4.10;;;;;;;;;;4972216;28;20406;-73
2021/03/08 04:39:04;;;;;;;5.38;3.88;;;;;;;;;;4988865;28;20440;-73
2021/03/08 04:41:30;;;;;;;5.03;3.92;;;;;;;;;;5007475;28;20112;-72
2021/03/08 04:43:56;;;;;;;5.55;4.70;;;;;;;;;;4992770;28;20047;-72
2021/03/08 04:46:22;;;;;;;5.43;4.22;;;;;;;;;;4997711;28;20043;-73
2021/03/08 04:48:47;;;;;;;4.85;3.33;;;;;;;;;;4955181;28;20505;-72
2021/03/08 04:51:12;;;;;;;4.57;4.03;;;;;;;;;;4955708;28;20490;-73
2021/03/08 04:53:38;;;;;;;5.45;4.60;;;;;;;;;;5021585;28;20091;-73
2021/03/08 04:56:03;;;;;;;4.28;3.88;;;;;;;;;;4994646;28;20417;-72
2021/03/08 04:58:30;;;;;;;5.80;4.13;;;;;;;;;;4995768;28;20031;-73
2021/03/08 05:00:56;;;;;;;5.65;4.05;;;;;;;;;;4990682;28;20382;-72
2021/03/08 05:03:22;;;;;;;4.97;4.35;;;;;;;;;;4990462;28;20105;-72
2021/03/08 05:05:47;;;;;;;4.90;4.25;;;;;;;;;;5005266;28;20061;-73
2021/03/08 05:08:14;;;;;;;4.88;3.92;;;;;;;;;;4997844;28;20047;-73
2021/03/08 05:10:39;;;;;;;4.90;3.45;;;;;;;;;;5003766;28;20100;-72
2021/03/08 05:13:06;;;;;;;4.50;3.92;;;;;;;;;;4990417;28;20501;-72
2021/03/08 05:15:32;;;;;;;5.57;3.97;;;;;;;;;;4987786;28;20035;-72
2021/03/08 05:17:58;;;;;;;6.25;4.85;;;;;;;;;;5011910;28;20046;-72
2021/03/08 05:20:23;;;;;;;5.00;3.95;;;;;;;;;;5006724;28;20093;-72
2021/03/08 05:22:48;;;;;;;4.82;4.28;;;;;;;;;;5023735;28;20049;-72
2021/03/08 05:25:14;;;;;;;5.13;3.88;;;;;;;;;;5006943;28;20031;-73
2021/03/08 05:27:39;;;;;;;6.32;4.28;;;;;;;;;;4990801;28;20042;-72
2021/03/08 05:30:05;;;;;;;4.97;4.30;;;;;;;;;;4989389;28;20065;-72
2021/03/08 05:32:42;;;;;;;5.80;4.57;;;;;;;;;;5003160;28;20503;-72
2021/03/08 05:35:08;;;;;;;5.78;4.70;;;;;;;;;;4987442;28;20035;-72
2021/03/08 05:37:33;;;;;;;4.95;4.07;;;;;;;;;;5003422;28;20398;-72
2021/03/08 05:40:02;;;;;;;7.15;4.63;;;;;;;;;;4979841;28;20035;-72
2021/03/08 05:42:28;;;;;;;5.30;4.30;;;;;;;;;;4987614;28;20042;-72
2021/03/08 05:45:08;;;;;;;5.50;4.45;;;;;;;;;;4971662;28;20035;-72
2021/03/08 05:47:54;;;;;;;5.57;4.05;;;;;;;;;;4987514;28;20043;-72
2021/03/08 05:50:38;;;;;;;5.68;4.10;;;;;;;;;;4984635;28;20049;-72
2021/03/08 05:53:24;;;;;;;5.85;3.90;;;;;;;;;;4987496;28;20057;-72
2021/03/08 05:56:08;;;;;;;5.57;4.40;;;;;;;;;;5010346;28;20089;-73
2021/03/08 05:58:53;;;;;;;5.63;4.15;;;;;;;;;;5027075;28;20053;-72
2021/03/08 06:01:39;;;;;;;6.40;4.47;;;;;;;;;;4995496;28;20038;-73
2021/03/08 06:04:27;;;;;;;5.07;4.00;;;;;;;;;;4986707;28;20509;-73
2021/03/08 06:07:22;;;;;;;7.32;5.10;;;;;;;;;;4989642;28;20034;-73
2021/03/08 06:10:03;;;;;;;5.78;4.75;;;;;;;;;;4992883;28;20054;-73
2021/03/08 06:12:40;;;;;;;6.28;4.57;;;;;;;;;;5026483;28;20117;-73
2021/03/08 06:15:10;;;;;;;6.25;4.55;;;;;;;;;;4978809;28;20043;-73
2021/03/08 06:17:39;;;;;;;6.20;4.28;;;;;;;;;;5026188;28;20030;-73
2021/03/08 06:20:07;;;;;;;7.90;5.13;;;;;;;;;;5025658;28;20042;-73
2021/03/08 06:22:33;;;;;;;6.05;4.18;;;;;;;;;;5026538;28;20034;-73
2021/03/08 06:24:59;;;;;;;7.20;5.40;;;;;;;;;;5012957;28;20042;-73
2021/03/08 06:27:25;;;;;;;6.30;4.07;;;;;;;;;;5009948;28;20038;-74
2021/03/08 06:29:53;;;;;;;7.70;4.85;;;;;;;;;;4990405;28;20169;-73
2021/03/08 06:32:20;;;;;;;7.70;4.20;;;;;;;;;;5011982;28;20046;-73
2021/03/08 06:34:45;;;;;;;5.97;3.80;;;;;;;;;;5006518;28;20089;-73
2021/03/08 06:37:12;;;;;;;8.18;4.10;;;;;;;;;;4975227;28;20444;-73
2021/03/08 06:39:38;;;;;;;5.82;4.15;;;;;;;;;;5006601;28;20070;-73
2021/03/08 06:42:05;;;;;;;12.90;8.18;;;;;;;;;;5006616;28;20401;-73
2021/03/08 06:44:30;;;;;;;13.45;9.88;;;;;;;;;;4989071;28;20034;-73
2021/03/08 06:46:56;;;;;;;14.25;9.57;;;;;;;;;;5009756;28;20105;-73
2021/03/08 06:49:22;;;;;;;11.15;8.52;;;;;;;;;;4992485;28;20497;-73
2021/03/08 06:52:09;;;;;;;11.73;8.15;;;;;;;;;;5009430;28;20535;-73
2021/03/08 06:54:39;;;;;;;12.75;8.57;;;;;;;;;;5025936;28;20049;-73
2021/03/08 06:57:26;;;;;;;12.50;8.80;;;;;;;;;;5025020;28;20054;-73
2021/03/08 06:59:58;;;;;;;12.65;7.55;;;;;;;;;;4993767;28;20114;-73
2021/03/08 07:02:34;;;;;;;;;;;;;;;;;;5011431;28;20043;-73
2021/03/08 07:04:59;;;;;;;10.90;7.75;;;;;;;;;;4998734;28;19956;-73
2021/03/08 07:07:25;;;;;;;12.13;6.82;;;;;;;;;;4989264;28;20137;-73
2021/03/08 07:09:51;;;;;;;12.27;7.47;;;;;;;;;;4989597;28;20386;-73
2021/03/08 07:12:17;;;;;;;12.25;7.40;;;;;;;;;;5008749;28;20494;-73
2021/03/08 07:14:43;;;;;;;11.18;7.25;;;;;;;;;;5022284;28;20042;-73
2021/03/08 07:17:28;;;;;;;12.98;7.03;;;;;;;;;;4991033;28;20501;-74
2021/03/08 07:19:54;;;;;;;11.30;7.03;;;;;;;;;;5018468;28;20050;-73
2021/03/08 07:22:46;;;;;;;11.82;6.72;;;;;;;;;;5015885;28;20050;-74
2021/03/08 07:25:19;;;;;;;11.77;6.60;;;;;;;;;;4988809;28;20129;-74
2021/03/08 07:27:51;;;;;;;;;;;;;;;;;;5000405;28;20045;-73
2021/03/08 07:30:18;;;;;;;10.30;6.93;;;;;;;;;;4989078;28;19943;-74
2021/03/08 07:32:58;;;;;;;13.20;6.28;;;;;;;;;;4972878;28;20035;-74
2021/03/08 07:35:42;;;;;;;10.23;6.22;;;;;;;;;;4972948;28;20043;-74
2021/03/08 07:38:11;;;;;;;13.32;7.15;;;;;;;;;;4989172;28;20070;-74
2021/03/08 07:40:38;;;;;;;9.05;7.07;;;;;;;;;;4991191;28;20030;-74
2021/03/08 07:43:03;;;;;;;7.70;6.55;;;;;;;;;;4976511;28;20038;-74
2021/03/08 07:45:40;;;;;;;9.63;5.75;;;;;;;;;;4959907;28;20515;-74
2021/03/08 07:48:19;;;;;;;9.23;6.35;;;;;;;;;;4975672;28;20038;-74
2021/03/08 07:50:45;;;;;;;7.93;5.88;;;;;;;;;;4960288;28;20485;-74
2021/03/08 07:53:28;;;;;;;7.32;5.45;;;;;;;;;;4992030;28;20049;-74
2021/03/08 07:55:54;;;;;;;7.22;5.72;;;;;;;;;;4995106;28;20054;-75
2021/03/08 07:58:19;;;;;;;9.95;7.13;;;;;;;;;;5008626;28;20558;-75
2021/03/08 08:00:45;;;;;;;11.23;6.00;;;;;;;;;;5024710;28;20042;-74
2021/03/08 08:03:10;;;;;;;7.25;5.55;;;;;;;;;;5007852;28;20112;-75
2021/03/08 08:05:36;;;;;;;8.65;6.05;;;;;;;;;;5008063;28;20043;-75
2021/03/08 08:08:01;;;;;;;8.00;6.25;;;;;;;;;;4998014;28;20038;-74
2021/03/08 08:10:27;;;;;;;7.30;5.97;;;;;;;;;;5013652;28;20045;-74
2021/03/08 08:12:52;;;;;;;8.13;5.53;;;;;;;;;;4959656;28;20038;-75
2021/03/08 08:15:18;;;;;;;8.32;5.93;;;;;;;;;;4988040;28;20406;-74
2021/03/08 08:17:44;;;;;;;9.30;5.72;;;;;;;;;;5022822;28;20110;-75
2021/03/08 08:20:10;;;;;;;8.50;6.53;;;;;;;;;;5015438;28;20126;-74
2021/03/08 08:22:35;;;;;;;7.43;5.47;;;;;;;;;;5004847;28;20452;-74
2021/03/08 08:25:02;;;;;;;6.97;5.90;;;;;;;;;;4996179;28;20509;-73
2021/03/08 08:27:28;;;;;;;7.95;6.25;;;;;;;;;;4987749;28;20039;-74
2021/03/08 08:29:58;;;;;;;7.90;5.95;;;;;;;;;;5008568;28;20125;-74
2021/03/08 08:32:23;;;;;;;9.15;6.68;;;;;;;;;;5023683;28;20040;-75
2021/03/08 08:34:51;;;;;;;7.45;6.38;;;;;;;;;;5015453;28;20039;-74
2021/03/08 08:37:21;;;;;;;7.88;6.18;;;;;;;;;;5005435;28;20038;-74
2021/03/08 08:39:52;;;;;;;8.05;6.35;;;;;;;;;;5004124;28;20039;-74
2021/03/08 08:42:25;;;;;;;8.87;6.73;;;;;;;;;;4977546;28;20047;-74
2021/03/08 08:44:51;;;;;;;7.05;6.20;;;;;;;;;;5023787;28;20779;-74
2021/03/08 08:47:19;;;;;;;7.88;6.10;;;;;;;;;;4975231;28;20042;-74
2021/03/08 08:49:47;;;;;;;8.90;7.15;;;;;;;;;;5005643;28;20046;-74
2021/03/08 08:52:13;;;;;;;7.35;6.03;;;;;;;;;;4970132;28;20043;-74
2021/03/08 08:54:38;;;;;;;7.68;6.35;;;;;;;;;;5016040;28;20524;-74
2021/03/08 08:57:03;;;;;;;11.20;6.80;;;;;;;;;;4988219;28;20050;-74
2021/03/08 08:59:30;;;;;;;8.15;6.65;;;;;;;;;;4972803;28;20410;-74
2021/03/08 09:02:16;;;;;;;10.27;6.53;;;;;;;;;;4963967;28;20477;-74
2021/03/08 09:04:42;;;;;;;8.05;6.53;;;;;;;;;;4980621;28;20121;-74
2021/03/08 09:07:21;;;;;;;8.80;6.63;;;;;;;;;;4984051;28;20132;-73
2021/03/08 09:09:46;;;;;;;11.75;7.15;;;;;;;;;;4973222;28;20493;-73
2021/03/08 09:12:27;;;;;;;10.07;6.40;;;;;;;;;;5023310;28;20080;-73
2021/03/08 09:14:54;;;;;;;8.68;7.55;;;;;;;;;;5020268;28;20042;-73
2021/03/08 09:17:29;;;;;;;8.63;6.43;;;;;;;;;;4985729;28;20053;-73
2021/03/08 09:19:54;;;;;;;9.23;7.43;;;;;;;;;;4976414;28;20039;-73
2021/03/08 09:22:26;;;;;;;8.43;7.00;;;;;;;;;;4991348;28;20109;-73
2021/03/08 09:25:01;;;;;;;7.35;6.60;;;;;;;;;;4987319;28;20066;-73
2021/03/08 09:27:27;;;;;;;7.68;6.25;;;;;;;;;;5015492;28;20043;-73
2021/03/08 09:29:54;;;;;;;8.60;6.53;;;;;;;;;;4987228;28;20042;-73
2021/03/08 09:32:19;;;;;;;9.30;7.35;;;;;;;;;;4985640;28;20038;-73
2021/03/08 09:34:45;;;;;;;9.73;7.00;;;;;;;;;;5027060;28;20064;-73
2021/03/08 09:37:10;;;;;;;6.93;6.22;;;;;;;;;;5006682;28;20497;-73
2021/03/08 09:39:53;;;;;;;7.65;5.97;;;;;;;;;;4991212;28;20064;-73
2021/03/08 09:42:18;;;;;;;8.73;6.35;;;;;;;;;;4994652;28;20050;-73
2021/03/08 09:44:44;;;;;;;11.32;7.82;;;;;;;;;;5016699;28;20485;-73
2021/03/08 09:47:10;;;;;;;9.43;8.40;;;;;;;;;;5009043;28;20049;-73
2021/03/08 09:49:54;;;;;;;15.77;12.02;;;;;;;;;;5008941;28;20451;-73
2021/03/08 09:52:39;;;;;;;17.77;14.73;;;;;;;;;;4994256;28;20497;-73
2021/03/08 09:55:26;;;;;;;18.73;16.10;;;;;;;;;;4962074;28;20030;-74
2021/03/08 09:57:51;;;;;;;22.80;19.00;;;;;;;;;;5021481;28;20476;-74
2021/03/08 10:00:20;;;;;;;24.83;16.70;;;;;;;;;;4994583;28;20034;-74
2021/03/08 10:02:45;;;;;;;17.98;13.90;;;;;;;;;;4992666;28;20042;-74
2021/03/08 10:05:11;;;;;;;19.88;14.90;;;;;;;;;;5009888;28;20038;-74
2021/03/08 10:07:51;;;;;;;19.67;13.80;;;;;;;;;;4990469;28;20042;-74
2021/03/08 10:10:18;;;;;;;16.60;12.90;;;;;;;;;;4990760;28;20063;-73
2021/03/08 10:12:43;;;;;;;15.55;11.43;;;;;;;;;;4998521;28;20049;-74
2021/03/08 10:15:10;;;;;;;14.60;10.98;;;;;;;;;;4962596;28;20059;-74
2021/03/08 10:17:35;;;;;;;13.13;10.38;;;;;;;;;;4982294;28;20064;-74
2021/03/08 10:20:05;;;;;;;11.98;9.85;;;;;;;;;;5000542;28;20070;-73
2021/03/08 10:22:31;;;;;;;12.85;9.18;;;;;;;;;;4993518;28;20047;-73
2021/03/08 10:24:58;;;;;;;9.43;8.20;;;;;;;;;;4983450;28;20038;-74
2021/03/08 10:27:23;;;;;;;11.90;8.30;;;;;;;;;;4958242;28;20092;-74
2021/03/08 10:29:50;;;;;;;10.10;8.15;;;;;;;;;;5020060;28;20046;-73
2021/03/08 10:32:16;;;;;;;12.23;8.13;;;;;;;;;;4993495;28;20042;-73
2021/03/08 10:34:41;;;;;;;9.32;7.90;;;;;;;;;;4990898;28;20088;-73
2021/03/08 10:37:10;;;;;;;10.70;7.18;;;;;;;;;;4996459;28;20421;-73
2021/03/08 10:39:36;;;;;;;9.10;7.18;;;;;;;;;;4993044;28;20034;-73
2021/03/08 10:42:01;;;;;;;8.02;6.80;;;;;;;;;;5025141;28;20041;-73
2021/03/08 10:44:27;;;;;;;7.75;6.47;;;;;;;;;;5009639;28;20038;-73
2021/03/08 10:46:52;;;;;;;9.73;7.10;;;;;;;;;;5025858;28;20318;-73
2021/03/08 10:49:18;;;;;;;7.35;6.60;;;;;;;;;;5008657;28;20413;-73
2021/03/08 10:51:43;;;;;;;6.13;5.43;;;;;;;;;;5025784;28;20131;-73
2021/03/08 10:54:10;;;;;;;7.10;5.70;;;;;;;;;;4993187;28;20093;-73
2021/03/08 10:56:37;;;;;;;7.85;6.40;;;;;;;;;;4973618;28;20069;-73
2021/03/08 10:59:03;;;;;;;6.18;5.57;;;;;;;;;;5007710;28;20030;-73
2021/03/08 11:01:29;;;;;;;5.75;5.00;;;;;;;;;;4991440;28;20064;-72
2021/03/08 11:03:54;;;;;;;5.78;5.22;;;;;;;;;;4994681;28;20421;-74
2021/03/08 11:06:21;;;;;;;9.98;6.10;;;;;;;;;;5002991;28;20034;-74
2021/03/08 11:08:59;;;;;;;6.03;5.15;;;;;;;;;;5008787;28;20030;-74
2021/03/08 11:11:30;;;;;;;7.40;5.50;;;;;;;;;;5017489;28;20045;-74
2021/03/08 11:14:05;;;;;;;6.78;5.55;;;;;;;;;;4996329;28;20049;-74
2021/03/08 11:16:31;;;;;;;8.23;5.70;;;;;;;;;;5008294;28;20408;-73
2021/03/08 11:19:25;;;;;;;8.80;5.28;;;;;;;;;;4978647;28;20566;-73
2021/03/08 11:22:10;;;;;;;8.00;5.30;;;;;;;;;;4976207;28;20124;-72
2021/03/08 11:24:51;;;;;;;7.53;6.28;;;;;;;;;;4983232;28;20488;-74
2021/03/08 11:27:27;;;;;;;7.80;6.63;;;;;;;;;;4989684;28;20045;-74
2021/03/08 11:30:07;;;;;;;7.28;5.47;;;;;;;;;;5004378;28;20038;-74
2021/03/08 11:32:34;;;;;;;7.45;5.22;;;;;;;;;;4974426;28;20100;-74
2021/03/08 11:34:59;;;;;;;6.38;5.20;;;;;;;;;;4987666;28;20038;-73
2021/03/08 11:37:26;;;;;;;6.60;4.90;;;;;;;;;;4972968;28;20100;-74
2021/03/08 11:39:56;;;;;;;6.88;4.80;;;;;;;;;;4991927;28;20113;-74
2021/03/08 11:42:24;;;;;;;7.70;5.65;;;;;;;;;;4988544;28;20502;-74
2021/03/08 11:44:50;;;;;;;7.57;5.03;;;;;;;;;;4973572;28;20063;-74
2021/03/08 11:47:15;;;;;;;8.20;5.47;;;;;;;;;;5019494;28;20500;-74
2021/03/08 11:49:41;;;;;;;7.57;5.05;;;;;;;;;;4991017;28;20113;-74
2021/03/08 11:52:07;;;;;;;7.38;5.22;;;;;;;;;;5007470;28;20058;-74
2021/03/08 11:54:32;;;;;;;6.03;5.13;;;;;;;;;;5023553;28;20519;-74
2021/03/08 11:56:59;;;;;;;5.90;4.72;;;;;;;;;;5024876;28;20597;-74
2021/03/08 11:59:24;;;;;;;6.60;4.30;;;;;;;;;;5024679;28;20072;-74
2021/03/08 12:01:50;;;;;;;5.72;3.97;;;;;;;;;;5008305;28;20378;-74
2021/03/08 12:04:15;;;;;;;6.18;4.15;;;;;;;;;;5011597;28;20409;-74
2021/03/08 12:06:41;;;;;;;6.07;4.18;;;;;;;;;;5007926;28;20412;-74
2021/03/08 12:09:07;;;;;;;5.82;4.18;;;;;;;;;;5022911;28;20031;-74
2021/03/08 12:11:33;;;;;;;4.63;3.70;;;;;;;;;;4973987;28;20042;-74
2021/03/08 12:13:58;;;;;;;6.50;4.22;;;;;;;;;;4979535;28;20126;-74
2021/03/08 12:16:24;;;;;;;6.43;3.80;;;;;;;;;;5023129;28;20046;-74
2021/03/08 12:18:49;;;;;;;5.30;4.03;;;;;;;;;;5023932;28;20038;-74
2021/03/08 12:21:15;;;;;;;5.30;3.50;;;;;;;;;;5007338;28;20046;-74
2021/03/08 12:23:40;;;;;;;4.90;3.83;;;;;;;;;;4990939;28;20164;-74
2021/03/08 12:26:06;;;;;;;5.30;4.05;;;;;;;;;;4959474;28;20104;-74
2021/03/08 12:28:31;;;;;;;6.38;3.90;;;;;;;;;;4975584;28;20066;-74
2021/03/08 12:30:57;;;;;;;5.57;3.45;;;;;;;;;;5004421;28;20453;-74
2021/03/08 12:33:23;;;;;;;5.72;4.53;;;;;;;;;;5004285;28;20114;-74
2021/03/08 12:35:48;;;;;;;7.45;5.47;;;;;;;;;;5021868;28;20061;-74
2021/03/08 12:38:14;;;;;;;6.78;5.53;;;;;;;;;;5003923;28;20034;-74
2021/03/08 12:40:39;;;;;;;5.55;4.93;;;;;;;;;;4975121;28;20050;-74
2021/03/08 12:43:04;;;;;;;7.07;5.13;;;;;;;;;;5023895;28;20409;-74
2021/03/08 12:45:30;;;;;;;5.88;4.50;;;;;;;;;;4987614;28;20046;-74
2021/03/08 12:47:56;;;;;;;6.30;5.07;;;;;;;;;;4995207;28;20093;-74
2021/03/08 12:50:21;;;;;;;6.43;5.00;;;;;;;;;;4987341;28;20039;-74
2021/03/08 12:52:46;;;;;;;5.82;4.68;;;;;;;;;;5007037;28;20453;-74
2021/03/08 12:55:12;;;;;;;5.57;4.57;;;;;;;;;;5023565;28;20045;-74
2021/03/08 12:57:38;;;;;;;5.47;4.28;;;;;;;;;;5007207;28;20374;-74
2021/03/08 13:00:05;;;;;;;5.10;3.88;;;;;;;;;;5023683;28;20050;-74
2021/03/08 13:02:31;;;;;;;6.25;4.15;;;;;;;;;;4987580;28;20038;-74
2021/03/08 13:04:56;;;;;;;6.65;3.97;;;;;;;;;;4972657;28;20043;-74
2021/03/08 13:07:21;;;;;;;5.45;4.30;;;;;;;;;;5003557;28;20497;-74
2021/03/08 13:09:47;;;;;;;6.20;4.03;;;;;;;;;;5020896;28;20057;-74
2021/03/08 13:12:12;;;;;;;7.55;4.57;;;;;;;;;;4985136;28;20035;-74
2021/03/08 13:14:38;;;;;;;7.30;4.82;;;;;;;;;;5016112;28;20438;-74
2021/03/08 13:17:03;;;;;;;5.97;4.28;;;;;;;;;;5007140;28;20049;-74
2021/03/08 13:19:29;;;;;;;5.68;4.40;;;;;;;;;;4961216;28;21759;-74
2021/03/08 13:21:54;;;;;;;6.75;4.35;;;;;;;;;;5004785;28;20043;-74
2021/03/08 13:24:20;;;;;;;6.75;4.22;;;;;;;;;;4993537;28;20053;-75
2021/03/08 13:26:45;;;;;;;6.13;4.40;;;;;;;;;;4981867;28;20035;-75
2021/03/08 13:29:11;;;;;;;7.38;4.82;;;;;;;;;;5019980;28;20035;-75
2021/03/08 13:31:36;;;;;;;5.95;4.18;;;;;;;;;;5003982;28;20033;-75
2021/03/08 13:34:02;;;;;;;5.63;4.60;;;;;;;;;;5007002;28;20401;-75
2021/03/08 13:36:27;;;;;;;8.82;5.47;;;;;;;;;;5023074;28;20031;-75
2021/03/08 13:38:53;;;;;;;7.05;5.57;;;;;;;;;;5023178;28;20042;-75
2021/03/08 13:41:18;;;;;;;7.43;5.25;;;;;;;;;;5007222;28;20038;-75
2021/03/08 13:43:43;;;;;;;9.27;7.40;;;;;;;;;;5007204;28;20056;-75
2021/03/08 13:46:09;;;;;;;9.10;6.53;;;;;;;;;;5023400;28;20041;-75
2021/03/08 13:48:36;;;;;;;9.20;7.97;;;;;;;;;;5019186;28;20097;-75
2021/03/08 13:51:01;;;;;;;13.07;10.05;;;;;;;;;;5018269;28;20078;-75
2021/03/08 13:53:27;;;;;;;14.23;10.65;;;;;;;;;;5003473;28;20030;-75
2021/03/08 13:55:52;;;;;;;11.18;9.40;;;;;;;;;;4971936;28;20054;-75
2021/03/08 13:58:18;;;;;;;12.23;10.98;;;;;;;;;;4984871;28;20086;-75
2021/03/08 14:00:43;;;;;;;14.48;11.23;;;;;;;;;;4999968;28;20042;-75
2021/03/08 14:03:09;;;;;;;14.02;11.25;;;;;;;;;;4996569;28;20417;-75
2021/03/08 14:05:34;;;;;;;15.10;11.63;;;;;;;;;;4954483;28;20386;-75
2021/03/08 14:07:59;;;;;;;14.05;9.63;;;;;;;;;;4954634;28;20114;-75
2021/03/08 14:10:25;;;;;;;13.00;9.98;;;;;;;;;;4970860;28;20038;-75
2021/03/08 14:12:50;;;;;;;9.63;8.63;;;;;;;;;;4988037;28;20135;-75
2021/03/08 14:15:16;;;;;;;10.38;8.63;;;;;;;;;;5001739;28;20461;-75
2021/03/08 14:17:41;;;;;;;10.00;8.05;;;;;;;;;;4990373;28;20038;-75
2021/03/08 14:20:07;;;;;;;11.05;7.88;;;;;;;;;;5007637;28;20034;-75
2021/03/08 14:22:33;;;;;;;10.32;7.78;;;;;;;;;;5000255;28;20552;-75
2021/03/08 14:24:58;;;;;;;10.10;7.15;;;;;;;;;;4985482;28;20081;-75
2021/03/08 14:27:24;;;;;;;8.75;7.05;;;;;;;;;;4993660;28;20508;-75
2021/03/08 14:29:49;;;;;;;8.73;6.85;;;;;;;;;;4993463;28;20050;-75
2021/03/08 14:32:17;;;;;;;8.57;7.03;;;;;;;;;;4977141;28;20416;-75
2021/03/08 14:34:43;;;;;;;10.55;6.40;;;;;;;;;;4978000;28;20038;-75
2021/03/08 14:37:09;;;;;;;9.45;6.35;;;;;;;;;;5009430;28;20402;-75
2021/03/08 14:39:35;;;;;;;8.13;6.35;;;;;;;;;;5009981;28;20038;-75
2021/03/08 14:42:00;;;;;;;6.88;5.60;;;;;;;;;;5026538;28;20038;-75
2021/03/08 14:44:26;;;;;;;8.93;5.53;;;;;;;;;;5026247;28;20034;-75
2021/03/08 14:46:51;;;;;;;7.03;5.32;;;;;;;;;;5025411;28;20038;-75